首页
METAR-TAF:

METAR-TAF

机场 :

加奥, 马里共和国

纬度: 16-16N, 经度: 000-03W, 海拔: 265米

当前天气观测

该预报发布于27分钟前的12:00 UTC
风速5节,风向
温度 28°C
湿度 70%
气压 1015 hPa
能見度: 7000
多云层高于3000英尺

METAR: GAGO 231200Z 18005KT 7000 BKN030 28/22 Q1015 NOSIG

时间: 12:27 (12:27 UTC)

预报

该预报发布于1小时和27分钟前的11:00 UTC
预报有效从23日的 12点(UTC)到 24日的 12点(UTC)
风速8节,风向
能見度: 8000
少量云层高于3000英尺

TAF: GAGO 231100Z 2312/2412 17008KT 8000 FEW030

超过4000个机场的气象观测和天气预报(METAR&TAF报告)。

可查询的气象台以黄色和红色小点在地图上表示。

将鼠标移到小点上方,可查看气象台名称。

然后点击查看天气观测和预报。

如需切换地图:点击带黑十字的绿色按钮放大地图;点击带横线的绿色按钮缩小地图;或者点击绿色箭头查看邻近地区的地图。


METAR-TAF: